Eden, Illinois
Current Conditions -  °F | °C
As of 8:35 AM on Friday 28 Nov 2014 (Local Time) from KSAR Reporting Station
Clear Clear  
Wind Chill: 23°   Ceiling: Unl
Heat Index: 32°   Visibility: 10mi
Dew Point: 26°   Wind: 10mph
Humidity: 80%   Direction: 170°S
Pressure: 30.29"   Gusts: 17mph
Location:  38.1133°N, 89.7153°W
Report Text: KSAR 281435Z AUTO 17009G15KT 10SM CLR 00/M03 A3029 RMK AO2 T10021032
Loading
Personal Weather Stations






























Interactive Weather Map New forecast layout! Learn more

10-Day Weather Forecast

Advertisements
Track Severe Weather on mobile